sensor_id;sensor_type;location;lat;lon;timestamp;temperature;humidity
68098;DHT22;54886;47.036;15.466;2023-06-19T00:01:57;21.18;62.02
68098;DHT22;54886;47.036;15.466;2023-06-19T00:04:23;21.16;61.48
68098;DHT22;54886;47.036;15.466;2023-06-19T00:06:48;21.18;62.07
68098;DHT22;54886;47.036;15.466;2023-06-19T00:09:14;21.19;61.66
68098;DHT22;54886;47.036;15.466;2023-06-19T00:11:39;21.19;61.70
68098;DHT22;54886;47.036;15.466;2023-06-19T00:14:05;21.16;61.66
68098;DHT22;54886;47.036;15.466;2023-06-19T00:16:31;21.09;61.69
68098;DHT22;54886;47.036;15.466;2023-06-19T00:18:56;21.10;61.76
68098;DHT22;54886;47.036;15.466;2023-06-19T00:21:23;21.09;61.50
68098;DHT22;54886;47.036;15.466;2023-06-19T00:23:49;21.06;61.84
68098;DHT22;54886;47.036;15.466;2023-06-19T00:26:15;21.00;62.37
68098;DHT22;54886;47.036;15.466;2023-06-19T00:28:40;21.00;61.89
68098;DHT22;54886;47.036;15.466;2023-06-19T00:31:08;20.96;62.50
68098;DHT22;54886;47.036;15.466;2023-06-19T00:33:34;20.86;63.12
68098;DHT22;54886;47.036;15.466;2023-06-19T00:35:59;20.82;63.63
68098;DHT22;54886;47.036;15.466;2023-06-19T00:38:26;20.78;63.09
68098;DHT22;54886;47.036;15.466;2023-06-19T00:40:51;20.71;63.63
68098;DHT22;54886;47.036;15.466;2023-06-19T00:43:17;20.69;63.44
68098;DHT22;54886;47.036;15.466;2023-06-19T00:45:42;20.67;62.98
68098;DHT22;54886;47.036;15.466;2023-06-19T00:48:08;20.65;63.59
68098;DHT22;54886;47.036;15.466;2023-06-19T00:50:34;20.59;63.89
68098;DHT22;54886;47.036;15.466;2023-06-19T00:52:59;20.57;64.01
68098;DHT22;54886;47.036;15.466;2023-06-19T00:55:28;20.52;64.09
68098;DHT22;54886;47.036;15.466;2023-06-19T00:57:55;20.47;64.00
68098;DHT22;54886;47.036;15.466;2023-06-19T01:00:20;20.48;64.00
68098;DHT22;54886;47.036;15.466;2023-06-19T01:02:46;20.47;64.59
68098;DHT22;54886;47.036;15.466;2023-06-19T01:05:12;20.41;65.05
68098;DHT22;54886;47.036;15.466;2023-06-19T01:10:16;20.37;63.58
68098;DHT22;54886;47.036;15.466;2023-06-19T01:12:49;20.44;63.32
68098;DHT22;54886;47.036;15.466;2023-06-19T01:15:17;20.43;63.29
68098;DHT22;54886;47.036;15.466;2023-06-19T01:17:44;20.30;64.64
68098;DHT22;54886;47.036;15.466;2023-06-19T01:20:11;20.27;65.37
68098;DHT22;54886;47.036;15.466;2023-06-19T01:22:37;20.22;65.04
68098;DHT22;54886;47.036;15.466;2023-06-19T01:25:02;20.14;65.91
68098;DHT22;54886;47.036;15.466;2023-06-19T01:27:30;19.99;66.22
68098;DHT22;54886;47.036;15.466;2023-06-19T01:30:01;20.06;65.50
68098;DHT22;54886;47.036;15.466;2023-06-19T01:32:40;20.02;65.32
68098;DHT22;54886;47.036;15.466;2023-06-19T01:35:08;20.00;65.97
68098;DHT22;54886;47.036;15.466;2023-06-19T01:37:36;19.97;65.79
68098;DHT22;54886;47.036;15.466;2023-06-19T01:40:02;20.00;64.36
68098;DHT22;54886;47.036;15.466;2023-06-19T01:42:29;19.99;65.99
68098;DHT22;54886;47.036;15.466;2023-06-19T01:44:55;19.85;66.15
68098;DHT22;54886;47.036;15.466;2023-06-19T01:47:20;19.86;64.66
68098;DHT22;54886;47.036;15.466;2023-06-19T01:49:47;19.90;65.69
68098;DHT22;54886;47.036;15.466;2023-06-19T01:52:12;19.78;66.50
68098;DHT22;54886;47.036;15.466;2023-06-19T01:54:38;19.72;65.97
68098;DHT22;54886;47.036;15.466;2023-06-19T01:57:04;19.62;66.77
68098;DHT22;54886;47.036;15.466;2023-06-19T01:59:29;19.57;67.29
68098;DHT22;54886;47.036;15.466;2023-06-19T02:01:55;19.58;66.43
68098;DHT22;54886;47.036;15.466;2023-06-19T02:04:20;19.53;66.91
68098;DHT22;54886;47.036;15.466;2023-06-19T02:06:45;19.53;66.26
68098;DHT22;54886;47.036;15.466;2023-06-19T02:09:11;19.58;65.77
68098;DHT22;54886;47.036;15.466;2023-06-19T02:11:36;19.54;65.20
68098;DHT22;54886;47.036;15.466;2023-06-19T02:14:01;19.48;66.81
68098;DHT22;54886;47.036;15.466;2023-06-19T02:16:27;19.46;66.45
68098;DHT22;54886;47.036;15.466;2023-06-19T02:18:52;19.50;64.95
68098;DHT22;54886;47.036;15.466;2023-06-19T02:21:17;19.43;67.16
68098;DHT22;54886;47.036;15.466;2023-06-19T02:23:43;19.38;65.47
68098;DHT22;54886;47.036;15.466;2023-06-19T02:26:08;19.37;65.57
68098;DHT22;54886;47.036;15.466;2023-06-19T02:28:34;19.41;64.69
68098;DHT22;54886;47.036;15.466;2023-06-19T02:30:59;19.41;65.78
68098;DHT22;54886;47.036;15.466;2023-06-19T02:33:24;19.37;66.15
68098;DHT22;54886;47.036;15.466;2023-06-19T02:35:50;19.26;67.21
68098;DHT22;54886;47.036;15.466;2023-06-19T02:38:15;19.23;66.93
68098;DHT22;54886;47.036;15.466;2023-06-19T02:40:40;19.17;65.64
68098;DHT22;54886;47.036;15.466;2023-06-19T02:43:06;19.19;65.11
68098;DHT22;54886;47.036;15.466;2023-06-19T02:45:31;19.17;65.15
68098;DHT22;54886;47.036;15.466;2023-06-19T02:47:57;19.13;67.38
68098;DHT22;54886;47.036;15.466;2023-06-19T02:50:22;19.02;67.12
68098;DHT22;54886;47.036;15.466;2023-06-19T02:52:47;18.98;66.85
68098;DHT22;54886;47.036;15.466;2023-06-19T02:55:13;18.93;68.38
68098;DHT22;54886;47.036;15.466;2023-06-19T02:57:38;18.84;68.87
68098;DHT22;54886;47.036;15.466;2023-06-19T03:00:04;18.85;66.90
68098;DHT22;54886;47.036;15.466;2023-06-19T03:02:34;18.85;68.17
68098;DHT22;54886;47.036;15.466;2023-06-19T03:04:59;18.86;66.18
68098;DHT22;54886;47.036;15.466;2023-06-19T03:07:25;18.91;66.32
68098;DHT22;54886;47.036;15.466;2023-06-19T03:09:53;18.88;66.61
68098;DHT22;54886;47.036;15.466;2023-06-19T03:12:19;18.89;67.20
68098;DHT22;54886;47.036;15.466;2023-06-19T03:14:44;18.79;67.57
68098;DHT22;54886;47.036;15.466;2023-06-19T03:17:09;18.78;67.97
68098;DHT22;54886;47.036;15.466;2023-06-19T03:19:35;18.76;66.34
68098;DHT22;54886;47.036;15.466;2023-06-19T03:22:00;18.71;68.91
68098;DHT22;54886;47.036;15.466;2023-06-19T03:24:25;18.65;68.16
68098;DHT22;54886;47.036;15.466;2023-06-19T03:26:51;18.62;69.15
68098;DHT22;54886;47.036;15.466;2023-06-19T03:29:16;18.57;68.59
68098;DHT22;54886;47.036;15.466;2023-06-19T03:31:42;18.50;70.51
68098;DHT22;54886;47.036;15.466;2023-06-19T03:34:07;18.50;69.91
68098;DHT22;54886;47.036;15.466;2023-06-19T03:36:33;18.45;68.94
68098;DHT22;54886;47.036;15.466;2023-06-19T03:38:58;18.48;68.47
68098;DHT22;54886;47.036;15.466;2023-06-19T03:41:23;18.44;69.93
68098;DHT22;54886;47.036;15.466;2023-06-19T03:43:49;18.44;67.60
68098;DHT22;54886;47.036;15.466;2023-06-19T03:46:14;18.43;68.89
68098;DHT22;54886;47.036;15.466;2023-06-19T03:48:40;18.47;68.59
68098;DHT22;54886;47.036;15.466;2023-06-19T03:51:05;18.48;68.09
68098;DHT22;54886;47.036;15.466;2023-06-19T03:53:31;18.55;67.57
68098;DHT22;54886;47.036;15.466;2023-06-19T03:55:56;18.57;69.41
68098;DHT22;54886;47.036;15.466;2023-06-19T03:58:21;18.61;68.20
68098;DHT22;54886;47.036;15.466;2023-06-19T04:00:47;18.68;66.49
68098;DHT22;54886;47.036;15.466;2023-06-19T04:03:12;18.75;67.37
68098;DHT22;54886;47.036;15.466;2023-06-19T04:05:38;18.82;65.85
68098;DHT22;54886;47.036;15.466;2023-06-19T04:08:04;18.89;65.62
68098;DHT22;54886;47.036;15.466;2023-06-19T04:10:29;19.00;66.49
68098;DHT22;54886;47.036;15.466;2023-06-19T04:12:55;19.07;65.06
68098;DHT22;54886;47.036;15.466;2023-06-19T04:15:21;19.13;66.00
68098;DHT22;54886;47.036;15.466;2023-06-19T04:17:46;19.23;66.10
68098;DHT22;54886;47.036;15.466;2023-06-19T04:20:12;19.28;65.60
68098;DHT22;54886;47.036;15.466;2023-06-19T04:22:38;19.37;65.33
68098;DHT22;54886;47.036;15.466;2023-06-19T04:25:05;19.43;66.64
68098;DHT22;54886;47.036;15.466;2023-06-19T04:27:31;19.48;65.50
68098;DHT22;54886;47.036;15.466;2023-06-19T04:29:57;19.55;64.83
68098;DHT22;54886;47.036;15.466;2023-06-19T04:32:23;19.64;66.30
68098;DHT22;54886;47.036;15.466;2023-06-19T04:34:48;19.64;66.20
68098;DHT22;54886;47.036;15.466;2023-06-19T04:37:14;19.69;65.80
68098;DHT22;54886;47.036;15.466;2023-06-19T04:39:44;19.67;65.72
68098;DHT22;54886;47.036;15.466;2023-06-19T04:42:10;19.69;65.43
68098;DHT22;54886;47.036;15.466;2023-06-19T04:44:35;19.74;65.17
68098;DHT22;54886;47.036;15.466;2023-06-19T04:47:00;19.78;64.91
68098;DHT22;54886;47.036;15.466;2023-06-19T04:49:29;19.78;64.66
68098;DHT22;54886;47.036;15.466;2023-06-19T04:51:56;19.82;64.33
68098;DHT22;54886;47.036;15.466;2023-06-19T04:54:22;19.87;64.04
68098;DHT22;54886;47.036;15.466;2023-06-19T04:56:47;19.92;64.66
68098;DHT22;54886;47.036;15.466;2023-06-19T04:59:12;20.00;66.27
68098;DHT22;54886;47.036;15.466;2023-06-19T05:01:43;20.03;64.42
68098;DHT22;54886;47.036;15.466;2023-06-19T05:04:08;20.09;62.32
68098;DHT22;54886;47.036;15.466;2023-06-19T05:06:36;20.14;62.83
68098;DHT22;54886;47.036;15.466;2023-06-19T05:09:01;20.20;64.01
68098;DHT22;54886;47.036;15.466;2023-06-19T05:11:27;20.23;63.18
68098;DHT22;54886;47.036;15.466;2023-06-19T05:13:52;20.27;62.61
68098;DHT22;54886;47.036;15.466;2023-06-19T05:16:17;20.34;63.09
68098;DHT22;54886;47.036;15.466;2023-06-19T05:18:44;20.36;62.70
68098;DHT22;54886;47.036;15.466;2023-06-19T05:21:10;20.40;64.16
68098;DHT22;54886;47.036;15.466;2023-06-19T05:23:35;20.40;63.03
68098;DHT22;54886;47.036;15.466;2023-06-19T05:26:01;20.45;62.38
68098;DHT22;54886;47.036;15.466;2023-06-19T05:28:26;20.48;61.49
68098;DHT22;54886;47.036;15.466;2023-06-19T05:30:51;20.52;62.81
68098;DHT22;54886;47.036;15.466;2023-06-19T05:33:17;20.61;62.36
68098;DHT22;54886;47.036;15.466;2023-06-19T05:35:43;20.65;62.74
68098;DHT22;54886;47.036;15.466;2023-06-19T05:38:09;20.69;62.07
68098;DHT22;54886;47.036;15.466;2023-06-19T05:40:34;20.72;61.88
68098;DHT22;54886;47.036;15.466;2023-06-19T05:43:00;20.81;61.91
68098;DHT22;54886;47.036;15.466;2023-06-19T05:45:26;20.88;62.15
68098;DHT22;54886;47.036;15.466;2023-06-19T05:47:52;20.92;62.42
68098;DHT22;54886;47.036;15.466;2023-06-19T05:50:17;20.99;61.07
68098;DHT22;54886;47.036;15.466;2023-06-19T05:52:43;21.00;60.98
68098;DHT22;54886;47.036;15.466;2023-06-19T05:55:09;21.03;61.29
68098;DHT22;54886;47.036;15.466;2023-06-19T05:57:35;21.10;60.54
68098;DHT22;54886;47.036;15.466;2023-06-19T06:00:00;21.12;60.53
68098;DHT22;54886;47.036;15.466;2023-06-19T06:02:26;21.19;60.66
68098;DHT22;54886;47.036;15.466;2023-06-19T06:04:53;21.24;60.17
68098;DHT22;54886;47.036;15.466;2023-06-19T06:07:18;21.27;60.74
68098;DHT22;54886;47.036;15.466;2023-06-19T06:09:44;21.33;61.95
68098;DHT22;54886;47.036;15.466;2023-06-19T06:12:09;21.36;60.65
68098;DHT22;54886;47.036;15.466;2023-06-19T06:14:35;21.40;60.70
68098;DHT22;54886;47.036;15.466;2023-06-19T06:17:00;21.46;60.94
68098;DHT22;54886;47.036;15.466;2023-06-19T06:19:25;21.47;61.12
68098;DHT22;54886;47.036;15.466;2023-06-19T06:21:51;21.55;63.52
68098;DHT22;54886;47.036;15.466;2023-06-19T06:24:16;21.62;62.30
68098;DHT22;54886;47.036;15.466;2023-06-19T06:26:42;21.64;61.15
68098;DHT22;54886;47.036;15.466;2023-06-19T06:29:08;21.73;61.92
68098;DHT22;54886;47.036;15.466;2023-06-19T06:31:33;21.77;63.25
68098;DHT22;54886;47.036;15.466;2023-06-19T06:33:59;21.84;61.76
68098;DHT22;54886;47.036;15.466;2023-06-19T06:36:24;21.86;61.26
68098;DHT22;54886;47.036;15.466;2023-06-19T06:38:50;21.89;62.32
68098;DHT22;54886;47.036;15.466;2023-06-19T06:41:15;21.92;61.46
68098;DHT22;54886;47.036;15.466;2023-06-19T06:43:41;21.99;62.76
68098;DHT22;54886;47.036;15.466;2023-06-19T06:46:08;22.03;62.29
68098;DHT22;54886;47.036;15.466;2023-06-19T06:48:33;22.10;62.92
68098;DHT22;54886;47.036;15.466;2023-06-19T06:50:59;22.14;62.59
68098;DHT22;54886;47.036;15.466;2023-06-19T06:53:27;22.22;62.22
68098;DHT22;54886;47.036;15.466;2023-06-19T06:55:57;22.24;61.49
68098;DHT22;54886;47.036;15.466;2023-06-19T06:58:24;22.29;61.23
68098;DHT22;54886;47.036;15.466;2023-06-19T07:00:50;22.30;61.41
68098;DHT22;54886;47.036;15.466;2023-06-19T07:03:16;22.36;60.81
68098;DHT22;54886;47.036;15.466;2023-06-19T07:05:42;22.37;61.07
68098;DHT22;54886;47.036;15.466;2023-06-19T07:08:07;22.43;60.40
68098;DHT22;54886;47.036;15.466;2023-06-19T07:10:32;22.47;60.25
68098;DHT22;54886;47.036;15.466;2023-06-19T07:12:58;22.48;59.55
68098;DHT22;54886;47.036;15.466;2023-06-19T07:15:23;22.56;60.50
68098;DHT22;54886;47.036;15.466;2023-06-19T07:17:49;22.60;62.34
68098;DHT22;54886;47.036;15.466;2023-06-19T07:20:14;22.65;61.94
68098;DHT22;54886;47.036;15.466;2023-06-19T07:22:41;22.69;61.44
68098;DHT22;54886;47.036;15.466;2023-06-19T07:25:07;22.76;61.75
68098;DHT22;54886;47.036;15.466;2023-06-19T07:27:32;22.78;60.00
68098;DHT22;54886;47.036;15.466;2023-06-19T07:29:58;22.83;60.65
68098;DHT22;54886;47.036;15.466;2023-06-19T07:32:23;22.88;60.39
68098;DHT22;54886;47.036;15.466;2023-06-19T07:34:49;22.91;59.88
68098;DHT22;54886;47.036;15.466;2023-06-19T07:37:14;22.99;61.77
68098;DHT22;54886;47.036;15.466;2023-06-19T07:39:46;23.01;60.93
68098;DHT22;54886;47.036;15.466;2023-06-19T07:42:15;23.05;60.82
68098;DHT22;54886;47.036;15.466;2023-06-19T07:44:41;23.11;62.36
68098;DHT22;54886;47.036;15.466;2023-06-19T07:47:07;23.12;61.35
68098;DHT22;54886;47.036;15.466;2023-06-19T07:49:33;23.19;61.08
68098;DHT22;54886;47.036;15.466;2023-06-19T07:51:58;23.27;63.52
68098;DHT22;54886;47.036;15.466;2023-06-19T07:54:24;23.36;62.35
68098;DHT22;54886;47.036;15.466;2023-06-19T07:56:49;23.46;62.98
68098;DHT22;54886;47.036;15.466;2023-06-19T07:59:15;23.50;62.67
68098;DHT22;54886;47.036;15.466;2023-06-19T08:01:42;23.58;61.44
68098;DHT22;54886;47.036;15.466;2023-06-19T08:04:07;23.64;60.96
68098;DHT22;54886;47.036;15.466;2023-06-19T08:06:32;23.68;60.54
68098;DHT22;54886;47.036;15.466;2023-06-19T08:08:58;23.71;61.78
68098;DHT22;54886;47.036;15.466;2023-06-19T08:11:23;23.77;61.77
68098;DHT22;54886;47.036;15.466;2023-06-19T08:13:49;23.84;61.51
68098;DHT22;54886;47.036;15.466;2023-06-19T08:16:14;23.88;60.82
68098;DHT22;54886;47.036;15.466;2023-06-19T08:18:40;23.91;61.14
68098;DHT22;54886;47.036;15.466;2023-06-19T08:21:05;23.98;60.24
68098;DHT22;54886;47.036;15.466;2023-06-19T08:23:30;24.06;61.53
68098;DHT22;54886;47.036;15.466;2023-06-19T08:25:56;24.13;61.11
68098;DHT22;54886;47.036;15.466;2023-06-19T08:28:21;24.25;60.76
68098;DHT22;54886;47.036;15.466;2023-06-19T08:30:46;24.30;59.35
68098;DHT22;54886;47.036;15.466;2023-06-19T08:33:13;24.35;59.06
68098;DHT22;54886;47.036;15.466;2023-06-19T08:35:38;24.36;59.34
68098;DHT22;54886;47.036;15.466;2023-06-19T08:38:04;24.41;57.68
68098;DHT22;54886;47.036;15.466;2023-06-19T08:40:29;24.44;58.22
68098;DHT22;54886;47.036;15.466;2023-06-19T08:42:55;24.56;59.68
68098;DHT22;54886;47.036;15.466;2023-06-19T08:45:21;24.56;58.72
68098;DHT22;54886;47.036;15.466;2023-06-19T08:47:47;24.64;58.79
68098;DHT22;54886;47.036;15.466;2023-06-19T08:50:13;24.64;59.30
68098;DHT22;54886;47.036;15.466;2023-06-19T08:52:39;24.70;57.51
68098;DHT22;54886;47.036;15.466;2023-06-19T08:55:05;24.75;57.19
68098;DHT22;54886;47.036;15.466;2023-06-19T08:57:35;24.85;58.41
68098;DHT22;54886;47.036;15.466;2023-06-19T09:00:00;24.92;57.27
68098;DHT22;54886;47.036;15.466;2023-06-19T09:02:36;25.02;57.29
68098;DHT22;54886;47.036;15.466;2023-06-19T09:05:13;25.11;56.50
68098;DHT22;54886;47.036;15.466;2023-06-19T09:07:38;25.19;57.29
68098;DHT22;54886;47.036;15.466;2023-06-19T09:10:17;25.25;56.55
68098;DHT22;54886;47.036;15.466;2023-06-19T09:13:04;25.26;55.45
68098;DHT22;54886;47.036;15.466;2023-06-19T09:15:34;25.29;54.82
68098;DHT22;54886;47.036;15.466;2023-06-19T09:18:04;25.28;53.99
68098;DHT22;54886;47.036;15.466;2023-06-19T09:20:32;25.30;54.38
68098;DHT22;54886;47.036;15.466;2023-06-19T09:22:58;25.35;55.44
68098;DHT22;54886;47.036;15.466;2023-06-19T09:25:24;25.42;56.97
68098;DHT22;54886;47.036;15.466;2023-06-19T09:27:52;25.51;53.95
68098;DHT22;54886;47.036;15.466;2023-06-19T09:30:18;25.51;54.52
68098;DHT22;54886;47.036;15.466;2023-06-19T09:32:43;25.60;54.75
68098;DHT22;54886;47.036;15.466;2023-06-19T09:35:09;25.60;55.20
68098;DHT22;54886;47.036;15.466;2023-06-19T09:37:35;25.64;55.37
68098;DHT22;54886;47.036;15.466;2023-06-19T09:40:02;25.64;55.64
68098;DHT22;54886;47.036;15.466;2023-06-19T09:42:39;25.71;55.11
68098;DHT22;54886;47.036;15.466;2023-06-19T09:45:06;25.84;56.68
68098;DHT22;54886;47.036;15.466;2023-06-19T09:47:43;25.88;53.80
68098;DHT22;54886;47.036;15.466;2023-06-19T09:50:11;25.95;55.80
68098;DHT22;54886;47.036;15.466;2023-06-19T09:52:38;25.97;53.83
68098;DHT22;54886;47.036;15.466;2023-06-19T09:55:05;25.97;55.53
68098;DHT22;54886;47.036;15.466;2023-06-19T09:57:32;26.09;55.76
68098;DHT22;54886;47.036;15.466;2023-06-19T09:59:58;26.12;55.83
68098;DHT22;54886;47.036;15.466;2023-06-19T10:02:27;26.19;54.45
68098;DHT22;54886;47.036;15.466;2023-06-19T10:04:55;26.22;54.16
68098;DHT22;54886;47.036;15.466;2023-06-19T10:07:25;26.31;54.22
68098;DHT22;54886;47.036;15.466;2023-06-19T10:12:41;26.46;53.77
68098;DHT22;54886;47.036;15.466;2023-06-19T10:23:16;26.73;52.15
68098;DHT22;54886;47.036;15.466;2023-06-19T10:25:46;26.84;53.86
68098;DHT22;54886;47.036;15.466;2023-06-19T10:30:44;26.94;52.56
68098;DHT22;54886;47.036;15.466;2023-06-19T10:33:09;26.98;50.86
68098;DHT22;54886;47.036;15.466;2023-06-19T10:35:39;27.05;52.64
68098;DHT22;54886;47.036;15.466;2023-06-19T10:38:05;27.12;53.42
68098;DHT22;54886;47.036;15.466;2023-06-19T10:40:31;27.15;52.72
68098;DHT22;54886;47.036;15.466;2023-06-19T10:42:56;27.21;50.57
68098;DHT22;54886;47.036;15.466;2023-06-19T10:45:22;27.31;52.05
68098;DHT22;54886;47.036;15.466;2023-06-19T10:47:54;27.38;50.71
68098;DHT22;54886;47.036;15.466;2023-06-19T10:50:20;27.42;49.44
68098;DHT22;54886;47.036;15.466;2023-06-19T10:52:45;27.57;49.67
68098;DHT22;54886;47.036;15.466;2023-06-19T10:55:12;27.59;49.56
68098;DHT22;54886;47.036;15.466;2023-06-19T10:57:39;27.66;49.50
68098;DHT22;54886;47.036;15.466;2023-06-19T11:00:06;27.71;50.45
68098;DHT22;54886;47.036;15.466;2023-06-19T11:02:39;27.77;49.59
68098;DHT22;54886;47.036;15.466;2023-06-19T11:05:06;27.87;50.81
68098;DHT22;54886;47.036;15.466;2023-06-19T11:07:32;27.93;50.46
68098;DHT22;54886;47.036;15.466;2023-06-19T11:09:57;27.96;49.28
68098;DHT22;54886;47.036;15.466;2023-06-19T11:12:23;28.07;51.25
68098;DHT22;54886;47.036;15.466;2023-06-19T11:14:49;28.11;50.33
68098;DHT22;54886;47.036;15.466;2023-06-19T11:17:15;28.18;50.70
68098;DHT22;54886;47.036;15.466;2023-06-19T11:19:41;28.22;51.79
68098;DHT22;54886;47.036;15.466;2023-06-19T11:22:09;28.19;50.85
68098;DHT22;54886;47.036;15.466;2023-06-19T11:24:34;28.19;51.32
68098;DHT22;54886;47.036;15.466;2023-06-19T11:27:00;28.17;51.14
68098;DHT22;54886;47.036;15.466;2023-06-19T11:29:28;28.21;50.82
68098;DHT22;54886;47.036;15.466;2023-06-19T11:32:08;28.18;49.23
68098;DHT22;54886;47.036;15.466;2023-06-19T11:34:35;28.22;48.24
68098;DHT22;54886;47.036;15.466;2023-06-19T11:37:22;28.22;48.77
68098;DHT22;54886;47.036;15.466;2023-06-19T11:39:48;28.25;49.65
68098;DHT22;54886;47.036;15.466;2023-06-19T11:42:15;28.25;49.82
68098;DHT22;54886;47.036;15.466;2023-06-19T11:45:00;28.29;49.59
68098;DHT22;54886;47.036;15.466;2023-06-19T11:47:31;28.31;51.35
68098;DHT22;54886;47.036;15.466;2023-06-19T11:49:59;28.32;50.33
68098;DHT22;54886;47.036;15.466;2023-06-19T11:52:25;28.38;50.09
68098;DHT22;54886;47.036;15.466;2023-06-19T11:54:51;28.51;50.47
68098;DHT22;54886;47.036;15.466;2023-06-19T11:57:16;28.59;49.75
68098;DHT22;54886;47.036;15.466;2023-06-19T11:59:42;28.63;49.07
68098;DHT22;54886;47.036;15.466;2023-06-19T12:02:08;28.66;48.12
68098;DHT22;54886;47.036;15.466;2023-06-19T12:04:34;28.60;49.21
68098;DHT22;54886;47.036;15.466;2023-06-19T12:06:59;28.57;49.96
68098;DHT22;54886;47.036;15.466;2023-06-19T12:09:25;28.53;48.49
68098;DHT22;54886;47.036;15.466;2023-06-19T12:11:50;28.55;48.10
68098;DHT22;54886;47.036;15.466;2023-06-19T12:14:16;28.60;48.32
68098;DHT22;54886;47.036;15.466;2023-06-19T12:16:41;28.57;47.75
68098;DHT22;54886;47.036;15.466;2023-06-19T12:19:07;28.70;48.00
68098;DHT22;54886;47.036;15.466;2023-06-19T12:21:32;28.80;47.81
68098;DHT22;54886;47.036;15.466;2023-06-19T12:23:57;28.86;46.61
68098;DHT22;54886;47.036;15.466;2023-06-19T12:26:23;28.91;47.98
68098;DHT22;54886;47.036;15.466;2023-06-19T12:28:50;28.94;47.99
68098;DHT22;54886;47.036;15.466;2023-06-19T12:31:17;28.94;48.33
68098;DHT22;54886;47.036;15.466;2023-06-19T12:33:42;29.00;45.89
68098;DHT22;54886;47.036;15.466;2023-06-19T12:36:13;29.06;46.78
68098;DHT22;54886;47.036;15.466;2023-06-19T12:38:40;29.10;47.66
68098;DHT22;54886;47.036;15.466;2023-06-19T12:41:05;29.12;47.62
68098;DHT22;54886;47.036;15.466;2023-06-19T12:43:30;29.08;48.17
68098;DHT22;54886;47.036;15.466;2023-06-19T12:45:59;29.12;48.19
68098;DHT22;54886;47.036;15.466;2023-06-19T12:48:25;29.17;46.98
68098;DHT22;54886;47.036;15.466;2023-06-19T12:50:51;29.21;46.61
68098;DHT22;54886;47.036;15.466;2023-06-19T12:53:16;29.18;47.20
68098;DHT22;54886;47.036;15.466;2023-06-19T12:55:42;29.12;48.35
68098;DHT22;54886;47.036;15.466;2023-06-19T12:58:09;29.03;47.99
68098;DHT22;54886;47.036;15.466;2023-06-19T13:00:34;28.96;47.09
68098;DHT22;54886;47.036;15.466;2023-06-19T13:03:00;28.91;48.98
68098;DHT22;54886;47.036;15.466;2023-06-19T13:05:25;28.87;48.32
68098;DHT22;54886;47.036;15.466;2023-06-19T13:07:51;28.81;49.34
68098;DHT22;54886;47.036;15.466;2023-06-19T13:10:16;28.81;48.04
68098;DHT22;54886;47.036;15.466;2023-06-19T13:12:41;28.77;48.45
68098;DHT22;54886;47.036;15.466;2023-06-19T13:15:07;28.74;48.43
68098;DHT22;54886;47.036;15.466;2023-06-19T13:17:33;28.83;48.05
68098;DHT22;54886;47.036;15.466;2023-06-19T13:19:58;28.94;49.30
68098;DHT22;54886;47.036;15.466;2023-06-19T13:22:24;28.94;48.70
68098;DHT22;54886;47.036;15.466;2023-06-19T13:24:50;28.93;49.14
68098;DHT22;54886;47.036;15.466;2023-06-19T13:27:16;28.83;49.34
68098;DHT22;54886;47.036;15.466;2023-06-19T13:29:43;28.80;48.71
68098;DHT22;54886;47.036;15.466;2023-06-19T13:32:08;28.77;49.17
68098;DHT22;54886;47.036;15.466;2023-06-19T13:34:34;28.81;49.29
68098;DHT22;54886;47.036;15.466;2023-06-19T13:36:59;28.86;48.60
68098;DHT22;54886;47.036;15.466;2023-06-19T13:39:25;28.94;49.76
68098;DHT22;54886;47.036;15.466;2023-06-19T13:41:52;28.94;48.94
68098;DHT22;54886;47.036;15.466;2023-06-19T13:44:17;28.93;48.19
68098;DHT22;54886;47.036;15.466;2023-06-19T13:46:44;28.90;49.35
68098;DHT22;54886;47.036;15.466;2023-06-19T13:49:09;28.94;48.31
68098;DHT22;54886;47.036;15.466;2023-06-19T13:51:36;29.03;47.91
68098;DHT22;54886;47.036;15.466;2023-06-19T13:54:02;29.07;47.24
68098;DHT22;54886;47.036;15.466;2023-06-19T13:56:29;29.07;48.67
68098;DHT22;54886;47.036;15.466;2023-06-19T13:58:55;29.11;47.29
68098;DHT22;54886;47.036;15.466;2023-06-19T14:01:20;29.15;47.73
68098;DHT22;54886;47.036;15.466;2023-06-19T14:03:46;29.18;47.97
68098;DHT22;54886;47.036;15.466;2023-06-19T14:06:11;29.24;48.12
68098;DHT22;54886;47.036;15.466;2023-06-19T14:08:37;29.27;48.00
68098;DHT22;54886;47.036;15.466;2023-06-19T14:11:05;29.27;47.47
68098;DHT22;54886;47.036;15.466;2023-06-19T14:13:30;29.28;46.98
68098;DHT22;54886;47.036;15.466;2023-06-19T14:15:55;29.28;47.10
68098;DHT22;54886;47.036;15.466;2023-06-19T14:18:21;29.29;47.56
68098;DHT22;54886;47.036;15.466;2023-06-19T14:20:47;29.31;46.88
68098;DHT22;54886;47.036;15.466;2023-06-19T14:23:12;29.34;47.58
68098;DHT22;54886;47.036;15.466;2023-06-19T14:25:37;29.29;46.21
68098;DHT22;54886;47.036;15.466;2023-06-19T14:28:03;29.32;47.25
68098;DHT22;54886;47.036;15.466;2023-06-19T14:30:29;29.32;46.72
68098;DHT22;54886;47.036;15.466;2023-06-19T14:32:55;29.32;46.83
68098;DHT22;54886;47.036;15.466;2023-06-19T14:35:20;29.35;47.21
68098;DHT22;54886;47.036;15.466;2023-06-19T14:37:45;29.36;46.96
68098;DHT22;54886;47.036;15.466;2023-06-19T14:40:11;29.31;47.29
68098;DHT22;54886;47.036;15.466;2023-06-19T14:42:36;29.28;47.38
68098;DHT22;54886;47.036;15.466;2023-06-19T14:45:02;29.21;46.80
68098;DHT22;54886;47.036;15.466;2023-06-19T14:47:27;29.08;45.98
68098;DHT22;54886;47.036;15.466;2023-06-19T14:49:53;29.06;46.54
68098;DHT22;54886;47.036;15.466;2023-06-19T14:52:21;28.96;46.35
68098;DHT22;54886;47.036;15.466;2023-06-19T14:54:47;28.91;46.84
68098;DHT22;54886;47.036;15.466;2023-06-19T14:57:12;28.81;46.92
68098;DHT22;54886;47.036;15.466;2023-06-19T14:59:37;28.76;46.71
68098;DHT22;54886;47.036;15.466;2023-06-19T15:02:03;28.77;46.81
68098;DHT22;54886;47.036;15.466;2023-06-19T15:04:29;28.84;47.76
68098;DHT22;54886;47.036;15.466;2023-06-19T15:06:54;28.87;47.54
68098;DHT22;54886;47.036;15.466;2023-06-19T15:09:19;28.89;46.95
68098;DHT22;54886;47.036;15.466;2023-06-19T15:11:45;28.84;47.62
68098;DHT22;54886;47.036;15.466;2023-06-19T15:14:10;28.84;47.84
68098;DHT22;54886;47.036;15.466;2023-06-19T15:16:36;28.81;47.80
68098;DHT22;54886;47.036;15.466;2023-06-19T15:19:01;28.76;48.61
68098;DHT22;54886;47.036;15.466;2023-06-19T15:21:27;28.73;48.57
68098;DHT22;54886;47.036;15.466;2023-06-19T15:23:55;28.72;49.14
68098;DHT22;54886;47.036;15.466;2023-06-19T15:26:23;28.69;49.31